createdAt,value
2023-03-29T00:01:42.497Z,100804.29
2023-03-29T00:06:47.726Z,100807.00
2023-03-29T00:11:49.268Z,100806.34
2023-03-29T00:16:51.222Z,100806.59
2023-03-29T00:21:52.952Z,100806.48
2023-03-29T00:26:54.661Z,100802.90
2023-03-29T00:31:56.387Z,100801.79
2023-03-29T00:36:58.993Z,100801.96
2023-03-29T00:42:00.730Z,100808.71
2023-03-29T00:47:02.457Z,100806.96
2023-03-29T00:52:04.060Z,100813.17
2023-03-29T00:57:07.000Z,100812.15
2023-03-29T01:02:09.533Z,100809.86
2023-03-29T01:07:21.312Z,100810.93
2023-03-29T01:12:29.760Z,100811.21
2023-03-29T01:17:31.814Z,100814.86
2023-03-29T01:23:08.776Z,100812.42
2023-03-29T01:28:14.765Z,100811.42
2023-03-29T01:33:24.043Z,100808.81
2023-03-29T01:38:36.139Z,100808.87
2023-03-29T01:44:02.464Z,100811.05
2023-03-29T01:49:37.826Z,100804.90
2023-03-29T01:54:47.848Z,100808.95
2023-03-29T01:59:51.760Z,100810.55
2023-03-29T02:04:54.690Z,100812.36
2023-03-29T02:09:58.350Z,100817.46
2023-03-29T02:15:04.644Z,100818.05
2023-03-29T02:20:17.382Z,100820.80
2023-03-29T02:25:19.513Z,100819.17
2023-03-29T02:30:22.734Z,100823.44
2023-03-29T02:35:36.438Z,100823.44
2023-03-29T02:40:40.741Z,100827.87
2023-03-29T02:45:44.339Z,100825.61
2023-03-29T02:50:49.498Z,100828.38
2023-03-29T02:55:52.806Z,100832.62
2023-03-29T03:00:55.906Z,100831.67
2023-03-29T03:05:57.912Z,100829.05
2023-03-29T03:10:59.708Z,100836.35
2023-03-29T03:16:01.528Z,100839.37
2023-03-29T03:21:04.715Z,100839.83
2023-03-29T03:26:06.516Z,100840.92
2023-03-29T03:31:08.226Z,100842.30
2023-03-29T03:36:11.281Z,100845.79
2023-03-29T03:41:12.868Z,100843.87
2023-03-29T03:46:16.472Z,100846.23
2023-03-29T03:51:18.469Z,100846.11
2023-03-29T03:56:20.545Z,100854.14
2023-03-29T04:01:22.096Z,100854.28
2023-03-29T04:06:23.574Z,100858.48
2023-03-29T04:11:25.752Z,100856.19
2023-03-29T04:16:28.490Z,100856.56
2023-03-29T04:21:30.059Z,100864.35
2023-03-29T04:26:31.550Z,100869.27
2023-03-29T04:31:33.643Z,100872.10
2023-03-29T04:36:35.542Z,100877.58
2023-03-29T04:41:37.096Z,100884.17
2023-03-29T04:46:40.352Z,100879.39
2023-03-29T04:51:42.399Z,100877.67
2023-03-29T04:56:44.085Z,100878.77
2023-03-29T05:01:45.901Z,100880.16
2023-03-29T05:06:47.508Z,100880.96
2023-03-29T05:11:50.339Z,100879.85
2023-03-29T05:16:52.202Z,100879.97
2023-03-29T05:21:54.193Z,100884.46
2023-03-29T05:26:56.462Z,100886.64
2023-03-29T05:31:58.119Z,100890.27
2023-03-29T05:37:01.566Z,100887.06
2023-03-29T05:42:04.538Z,100890.04
2023-03-29T05:47:07.212Z,100898.16
2023-03-29T05:52:09.217Z,100898.44
2023-03-29T05:57:11.542Z,100899.23
2023-03-29T06:02:15.493Z,100894.23
2023-03-29T06:07:17.676Z,100895.20
2023-03-29T06:12:20.407Z,100910.13
2023-03-29T06:17:22.402Z,100905.14
2023-03-29T06:22:24.106Z,100900.11
2023-03-29T06:27:25.823Z,100903.87
2023-03-29T06:32:28.154Z,100905.89
2023-03-29T06:37:29.779Z,100911.27
2023-03-29T06:42:31.292Z,100917.86
2023-03-29T06:47:32.979Z,100924.43
2023-03-29T06:52:35.697Z,100921.38
2023-03-29T06:57:38.805Z,100919.88
2023-03-29T07:02:41.320Z,100924.06
2023-03-29T07:08:00.453Z,100921.04
2023-03-29T07:13:02.027Z,100917.31
2023-03-29T07:18:04.946Z,100915.49
2023-03-29T07:23:08.167Z,100918.65
2023-03-29T07:28:11.256Z,100916.27
2023-03-29T07:33:13.432Z,100916.15
2023-03-29T07:38:15.623Z,100916.41
2023-03-29T07:43:18.329Z,100916.66
2023-03-29T07:48:20.314Z,100922.80
2023-03-29T07:53:23.118Z,100917.60
2023-03-29T07:58:25.353Z,100915.23
2023-03-29T08:03:27.885Z,100911.27
2023-03-29T08:08:29.513Z,100911.41
2023-03-29T08:13:31.249Z,100908.52
2023-03-29T08:18:34.665Z,100905.70
2023-03-29T08:23:36.439Z,100903.25
2023-03-29T08:28:38.780Z,100890.54
2023-03-29T08:33:41.077Z,100888.88
2023-03-29T08:38:42.740Z,100888.56
2023-03-29T08:44:06.554Z,100893.65
2023-03-29T08:49:12.115Z,100890.41
2023-03-29T08:54:22.057Z,100887.55
2023-03-29T08:59:29.287Z,100880.66
2023-03-29T09:04:38.666Z,100884.19
2023-03-29T09:09:42.826Z,100879.44
2023-03-29T09:15:32.008Z,100868.77
2023-03-29T09:20:58.530Z,100865.60
2023-03-29T09:26:12.560Z,100865.58
2023-03-29T09:31:20.880Z,100862.20
2023-03-29T09:36:32.714Z,100860.67
2023-03-29T09:41:44.891Z,100854.35
2023-03-29T09:47:19.229Z,100857.23
2023-03-29T09:52:21.514Z,100850.61
2023-03-29T09:57:23.305Z,100854.30
2023-03-29T10:02:31.670Z,100844.84
2023-03-29T10:07:44.772Z,100846.52
2023-03-29T10:12:50.458Z,100836.27
2023-03-29T10:17:58.902Z,100833.64
2023-03-29T10:23:00.851Z,100835.47
2023-03-29T10:28:16.278Z,100829.34
2023-03-29T10:33:21.189Z,100829.65
2023-03-29T10:38:26.032Z,100828.77
2023-03-29T10:43:34.867Z,100823.54
2023-03-29T10:48:36.748Z,100820.98
2023-03-29T10:53:38.304Z,100818.55
2023-03-29T10:59:17.793Z,100816.59
2023-03-29T11:04:23.176Z,100816.17
2023-03-29T11:09:31.071Z,100809.96
2023-03-29T11:14:52.474Z,100810.95
2023-03-29T11:20:11.316Z,100809.66
2023-03-29T11:25:31.069Z,100803.59
2023-03-29T11:30:51.933Z,100799.17
2023-03-29T11:36:04.954Z,100792.10
2023-03-29T11:41:19.768Z,100784.02
2023-03-29T11:46:28.820Z,100778.61
2023-03-29T11:51:38.077Z,100776.08
2023-03-29T11:56:52.351Z,100774.38
2023-03-29T12:02:05.426Z,100765.55
2023-03-29T12:07:28.831Z,100759.66
2023-03-29T12:12:46.762Z,100749.13
2023-03-29T12:18:07.056Z,100744.91
2023-03-29T12:23:14.505Z,100739.66
2023-03-29T12:29:00.545Z,100739.53
2023-03-29T12:34:40.694Z,100735.30
2023-03-29T12:39:42.984Z,100729.20
2023-03-29T12:44:50.545Z,100724.66
2023-03-29T12:49:58.201Z,100730.31
2023-03-29T12:55:02.978Z,100730.67
2023-03-29T13:00:23.824Z,100721.96
2023-03-29T13:05:32.396Z,100712.41
2023-03-29T13:10:42.119Z,100712.45
2023-03-29T13:15:45.198Z,100717.04
2023-03-29T13:20:53.560Z,100706.42
2023-03-29T13:25:55.587Z,100702.97
2023-03-29T13:31:31.345Z,100696.25
2023-03-29T13:36:56.778Z,100699.13
2023-03-29T13:42:18.021Z,100694.13
2023-03-29T13:47:19.525Z,100691.84
2023-03-29T13:52:28.729Z,100689.56
2023-03-29T13:57:38.280Z,100685.09
2023-03-29T14:02:49.674Z,100681.95
2023-03-29T14:07:53.748Z,100680.31
2023-03-29T14:12:56.727Z,100680.96
2023-03-29T14:18:00.649Z,100673.67
2023-03-29T14:23:09.986Z,100665.87
2023-03-29T14:28:23.881Z,100655.94
2023-03-29T14:33:27.380Z,100655.47
2023-03-29T14:38:29.959Z,100653.02
2023-03-29T14:43:32.184Z,100650.16
2023-03-29T14:48:35.648Z,100647.14
2023-03-29T14:53:39.027Z,100647.08
2023-03-29T14:58:46.682Z,100644.88
2023-03-29T15:04:08.928Z,100644.90
2023-03-29T15:09:34.620Z,100642.16
2023-03-29T15:14:38.226Z,100644.91
2023-03-29T15:19:39.707Z,100641.73
2023-03-29T15:24:48.739Z,100638.18
2023-03-29T15:30:00.985Z,100641.94
2023-03-29T15:35:27.387Z,100636.73
2023-03-29T15:40:28.957Z,100636.85
2023-03-29T15:45:30.475Z,100635.58
2023-03-29T15:50:32.617Z,100635.97
2023-03-29T15:55:34.188Z,100636.67
2023-03-29T16:00:36.795Z,100632.25
2023-03-29T16:05:38.293Z,100630.67
2023-03-29T16:10:41.425Z,100625.35
2023-03-29T16:15:43.326Z,100626.01
2023-03-29T16:20:44.936Z,100620.35
2023-03-29T16:25:46.439Z,100619.87
2023-03-29T16:30:48.872Z,100613.77
2023-03-29T16:35:50.996Z,100612.91
2023-03-29T16:40:53.822Z,100607.65
2023-03-29T16:45:55.584Z,100602.16
2023-03-29T16:50:57.587Z,100603.17
2023-03-29T16:55:59.123Z,100595.93
2023-03-29T17:01:09.679Z,100592.95
2023-03-29T17:06:12.275Z,100594.38
2023-03-29T17:11:14.148Z,100589.29
2023-03-29T17:16:17.210Z,100591.85
2023-03-29T17:21:19.138Z,100593.76
2023-03-29T17:26:20.666Z,100594.10
2023-03-29T17:31:22.413Z,100594.28
2023-03-29T17:36:25.498Z,100593.93
2023-03-29T17:41:29.132Z,100591.35
2023-03-29T17:46:32.483Z,100594.92
2023-03-29T17:51:34.434Z,100597.96
2023-03-29T17:56:42.112Z,100604.06
2023-03-29T18:01:44.537Z,100601.65
2023-03-29T18:06:46.861Z,100603.14
2023-03-29T18:11:49.006Z,100611.46
2023-03-29T18:16:51.230Z,100614.15
2023-03-29T18:21:53.592Z,100618.73
2023-03-29T18:26:56.591Z,100626.02
2023-03-29T18:32:02.892Z,100622.09
2023-03-29T18:37:05.376Z,100609.13
2023-03-29T18:42:09.190Z,100604.17
2023-03-29T18:47:12.785Z,100601.94
2023-03-29T18:52:14.337Z,100596.65
2023-03-29T18:57:15.924Z,100591.36
2023-03-29T19:02:17.655Z,100593.25
2023-03-29T19:07:20.644Z,100602.80
2023-03-29T19:12:22.345Z,100607.05
2023-03-29T19:17:24.081Z,100600.24
2023-03-29T19:22:25.953Z,100596.83
2023-03-29T19:27:27.437Z,100598.71
2023-03-29T19:32:31.306Z,100604.67
2023-03-29T19:37:34.087Z,100600.05
2023-03-29T19:42:36.232Z,100596.83
2023-03-29T19:47:37.842Z,100591.17
2023-03-29T19:52:41.196Z,100591.84
2023-03-29T19:57:42.699Z,100586.71
2023-03-29T20:02:44.605Z,100585.34
2023-03-29T20:07:46.205Z,100583.46
2023-03-29T20:12:48.018Z,100576.48
2023-03-29T20:17:51.437Z,100569.84
2023-03-29T20:22:58.243Z,100568.11
2023-03-29T20:28:00.607Z,100562.66
2023-03-29T20:33:02.215Z,100554.63
2023-03-29T20:38:03.811Z,100550.00
2023-03-29T20:43:05.307Z,100541.80
2023-03-29T20:48:07.402Z,100534.98
2023-03-29T20:53:08.917Z,100526.62
2023-03-29T20:58:10.501Z,100521.83
2023-03-29T21:03:12.274Z,100520.45
2023-03-29T21:08:17.555Z,100513.61
2023-03-29T21:13:19.115Z,100515.78
2023-03-29T21:18:21.366Z,100516.73
2023-03-29T21:23:22.844Z,100519.73
2023-03-29T21:28:24.386Z,100516.41
2023-03-29T21:33:25.872Z,100520.23
2023-03-29T21:38:28.294Z,100514.35
2023-03-29T21:43:29.807Z,100510.21
2023-03-29T21:48:31.887Z,100506.60
2023-03-29T21:53:33.548Z,100505.73
2023-03-29T21:58:35.313Z,100509.29
2023-03-29T22:03:38.136Z,100508.30
2023-03-29T22:08:40.036Z,100501.70
2023-03-29T22:13:43.080Z,100497.13
2023-03-29T22:18:49.714Z,100489.33
2023-03-29T22:23:54.270Z,100488.00
2023-03-29T22:28:57.416Z,100484.27
2023-03-29T22:33:59.821Z,100481.59
2023-03-29T22:39:01.346Z,100486.86
2023-03-29T22:44:03.072Z,100480.74
2023-03-29T22:49:04.585Z,100478.55
2023-03-29T22:54:06.196Z,100474.65
2023-03-29T22:59:07.666Z,100462.93
2023-03-29T23:04:09.147Z,100450.37
2023-03-29T23:09:11.104Z,100446.29
2023-03-29T23:14:12.619Z,100443.59
2023-03-29T23:19:14.136Z,100445.48
2023-03-29T23:24:19.161Z,100444.48
2023-03-29T23:29:20.927Z,100442.98
2023-03-29T23:34:22.960Z,100438.41
2023-03-29T23:39:25.231Z,100426.19
2023-03-29T23:44:27.005Z,100414.48
2023-03-29T23:49:28.489Z,100412.45
2023-03-29T23:54:30.358Z,100418.05
2023-03-29T23:59:37.670Z,100415.02
